LHSM/SOB METAR and TAF weather

Enter ICAO airport designator
Station Type Date Time Source
LHSM METAR 2022/06/28 15:15 UTC NOAA

LHSM 281515Z AUTO 07005KT 030V110 CAVOK 31/20 Q1016 NOSIG


Station Type Date Time Source
LHSM Decoded METAR 2022/06/28 15:15 UTC NOAA

Station name not available
Jun 28, 2022 - 11:15 AM EDT / 2022.06.28 1515 UTC
Wind: from the ENE (070 degrees) at 6 MPH (5 KT) (direction variable):0
Visibility: greater than 7 mile(s):0
Temperature: 87 F (31 C)
Dew Point: 68 F (20 C)
Relative Humidity: 52%
Pressure (altimeter): 30.00 in. Hg (1016 hPa)
ob: LHSM 281515Z AUTO 07005KT 030V110 CAVOK 31/20 Q1016 NOSIG
cycle: 15

Station Type Date Time Source
LHSM TAF UTC NOAA

Error!

Example: see airport list